Time;durP1;ratioP1;P1;durP2;ratioP2;P2;SDS_P1;SDS_P2;PMS_P1;PMS_P2;Temp;Humidity;BMP_temperature;BMP_pressure;BME280_temperature;BME280_humidity;BME280_pressure;Samples;Min_cycle;Max_cycle;Signal;HPM_P1;HPM_P2
2022/04/08 00:01:01;;;;;;;5.43;1.70;;;;;;;18.87;52.95;98919.88;5032226;28;20533;-61
2022/04/08 00:03:27;;;;;;;3.70;1.40;;;;;;;18.90;52.77;98915.38;5032378;28;20169;-61
2022/04/08 00:05:54;;;;;;;7.30;1.77;;;;;;;18.87;52.80;98924.81;5014579;28;20809;-61
2022/04/08 00:08:19;;;;;;;5.43;1.40;;;;;;;18.86;52.80;98918.28;5032025;28;20172;-61
2022/04/08 00:10:45;;;;;;;6.63;1.47;;;;;;;18.92;52.53;98922.31;5012986;28;20450;-61
2022/04/08 00:13:11;;;;;;;6.80;1.47;;;;;;;18.93;52.76;98923.16;5032125;28;20538;-61
2022/04/08 00:15:38;;;;;;;4.63;1.20;;;;;;;18.92;52.91;98930.09;5032422;28;20202;-61
2022/04/08 00:18:04;;;;;;;5.47;1.30;;;;;;;18.87;53.04;98931.31;5031997;28;20172;-61
2022/04/08 00:20:30;;;;;;;4.00;1.40;;;;;;;18.90;52.77;98927.66;5031838;28;20419;-61
2022/04/08 00:22:55;;;;;;;4.17;1.40;;;;;;;18.90;52.79;98927.66;5031950;28;20415;-61
2022/04/08 00:25:21;;;;;;;10.27;1.80;;;;;;;18.89;52.80;98919.47;5031565;28;20415;-61
2022/04/08 00:27:46;;;;;;;4.77;1.50;;;;;;;18.84;52.83;98917.88;5030878;28;20180;-61
2022/04/08 00:30:12;;;;;;;6.63;1.53;;;;;;;18.87;52.85;98924.81;5031572;28;20568;-61
2022/04/08 00:32:37;;;;;;;3.93;1.60;;;;;;;18.86;52.94;98923.19;5031930;28;20187;-61
2022/04/08 00:35:03;;;;;;;5.00;1.50;;;;;;;18.87;52.89;98934.19;5031518;28;20168;-61
2022/04/08 00:37:28;;;;;;;4.00;1.40;;;;;;;18.87;52.37;98947.69;5031641;28;20172;-61
2022/04/08 00:39:54;;;;;;;5.37;1.47;;;;;;;18.85;52.99;98953.00;5030840;28;20643;-61
2022/04/08 00:42:19;;;;;;;4.03;1.43;;;;;;;18.87;52.68;98948.47;5015538;28;20188;-61
2022/04/08 00:44:45;;;;;;;4.20;1.00;;;;;;;18.86;52.92;98957.50;5030303;28;20720;-61
2022/04/08 00:47:11;;;;;;;5.57;1.20;;;;;;;18.85;53.09;98961.56;5030863;28;20761;-62
2022/04/08 00:49:37;;;;;;;3.47;1.07;;;;;;;18.83;53.12;98955.47;5029497;28;20505;-61
2022/04/08 00:52:03;;;;;;;5.93;1.63;;;;;;;18.82;52.83;98959.56;5030255;28;20424;-61
2022/04/08 00:54:30;;;;;;;3.30;1.17;;;;;;;18.82;53.03;98971.00;5012631;28;20208;-61
2022/04/08 00:56:55;;;;;;;4.77;1.20;;;;;;;18.83;52.88;98972.63;5030660;28;20184;-61
2022/04/08 00:59:20;;;;;;;2.43;0.90;;;;;;;18.82;52.74;98966.06;5012524;28;20427;-61
2022/04/08 01:01:46;;;;;;;5.00;1.70;;;;;;;18.86;53.06;98969.75;5030638;28;20192;-61
2022/04/08 01:04:12;;;;;;;3.80;1.30;;;;;;;18.84;53.08;98983.66;5029792;28;20663;-61
2022/04/08 01:06:38;;;;;;;5.73;1.17;;;;;;;18.82;52.97;98986.09;5029089;28;20169;-61
2022/04/08 01:09:03;;;;;;;5.50;1.50;;;;;;;18.85;52.60;98978.72;5029052;28;20172;-61
2022/04/08 01:11:28;;;;;;;3.97;1.40;;;;;;;18.82;52.86;98988.94;5030759;28;20188;-61
2022/04/08 01:13:54;;;;;;;3.60;1.20;;;;;;;18.84;52.92;98988.53;5030225;28;20184;-61
2022/04/08 01:16:19;;;;;;;5.50;1.40;;;;;;;18.84;52.94;98995.09;5029805;28;20663;-61
2022/04/08 01:18:45;;;;;;;3.77;1.40;;;;;;;18.85;53.03;98984.44;5030020;28;20164;-61
2022/04/08 01:21:10;;;;;;;5.40;1.47;;;;;;;18.81;52.96;99007.34;5030194;28;20202;-61
2022/04/08 01:23:36;;;;;;;3.63;1.37;;;;;;;18.82;53.13;98997.53;5029546;28;20544;-61
2022/04/08 01:26:08;;;;;;;5.00;1.63;;;;;;;18.84;52.74;99002.84;5029697;28;20187;-61
2022/04/08 01:28:33;;;;;;;6.60;1.10;;;;;;;18.80;53.04;99005.72;5029800;28;20523;-61
2022/04/08 01:30:59;;;;;;;3.83;1.40;;;;;;;18.81;52.98;98997.97;5028844;28;20478;-61
2022/04/08 01:33:24;;;;;;;5.10;1.17;;;;;;;18.80;52.95;99002.03;5030087;28;20179;-61
2022/04/08 01:35:50;;;;;;;8.17;1.70;;;;;;;18.78;53.10;99013.91;5029888;28;20636;-61
2022/04/08 01:38:15;;;;;;;4.30;1.40;;;;;;;18.81;52.91;99013.06;5029629;28;20172;-61
2022/04/08 01:40:41;;;;;;;6.20;1.60;;;;;;;18.79;53.20;99009.81;5029934;28;20168;-61
2022/04/08 01:43:06;;;;;;;3.70;1.17;;;;;;;18.80;53.01;99020.00;5029880;28;20544;-61
2022/04/08 01:45:32;;;;;;;6.40;1.30;;;;;;;18.81;52.95;99015.13;5012060;28;20203;-61
2022/04/08 01:47:57;;;;;;;7.23;1.10;;;;;;;18.76;52.98;99016.34;4991086;28;1113975;-61
2022/04/08 01:50:23;;;;;;;5.43;1.70;;;;;;;18.83;52.86;99016.34;5030660;28;20683;-61
2022/04/08 01:52:48;;;;;;;5.03;1.50;;;;;;;18.81;52.66;99023.69;5029933;28;20249;-61
2022/04/08 01:55:14;;;;;;;4.93;1.10;;;;;;;18.78;52.70;99028.19;5011544;28;20184;-61
2022/04/08 01:57:42;;;;;;;4.53;1.43;;;;;;;18.80;53.01;99022.88;5029878;28;20814;-61
2022/04/08 02:00:09;;;;;;;4.13;1.37;;;;;;;18.78;53.15;99031.06;5030469;28;20176;-61
2022/04/08 02:02:35;;;;;;;5.13;1.63;;;;;;;18.80;52.95;99034.31;5030604;28;20423;-62
2022/04/08 02:05:00;;;;;;;5.00;1.20;;;;;;;18.80;53.14;99020.00;5030211;28;20422;-61
2022/04/08 02:07:26;;;;;;;3.67;1.10;;;;;;;18.77;53.14;99025.75;5030470;28;20423;-61
2022/04/08 02:09:52;;;;;;;3.43;1.20;;;;;;;18.82;52.62;99031.03;5030431;28;20622;-61
2022/04/08 02:12:18;;;;;;;2.93;1.13;;;;;;;18.79;52.77;99032.69;5014883;28;20187;-61
2022/04/08 02:14:43;;;;;;;4.50;1.30;;;;;;;18.80;53.08;99028.59;5028667;28;20914;-61
2022/04/08 02:17:09;;;;;;;2.60;1.20;;;;;;;18.77;53.08;99022.88;5030401;28;20259;-61
2022/04/08 02:19:34;;;;;;;4.90;1.73;;;;;;;18.82;52.71;99026.13;5031288;28;20180;-61
2022/04/08 02:21:59;;;;;;;3.57;1.00;;;;;;;18.82;52.80;99033.91;5034223;28;20559;-61
2022/04/08 02:24:25;;;;;;;4.00;1.63;;;;;;;18.79;52.97;99049.00;5033035;28;20173;-61
2022/04/08 02:26:51;;;;;;;2.67;1.00;;;;;;;18.80;52.81;99040.03;5016265;28;20258;-61
2022/04/08 02:29:16;;;;;;;3.93;0.90;;;;;;;18.79;52.61;99055.56;5034056;28;20608;-61
2022/04/08 02:31:42;;;;;;;3.57;1.50;;;;;;;18.79;52.87;99058.41;5034192;28;20519;-61
2022/04/08 02:34:07;;;;;;;3.20;1.07;;;;;;;18.80;52.95;99053.50;5033928;28;20169;-61
2022/04/08 02:36:32;;;;;;;3.73;1.40;;;;;;;18.77;52.97;99051.47;5033981;28;20183;-61
2022/04/08 02:38:58;;;;;;;3.87;1.10;;;;;;;18.77;52.96;99052.28;5033954;28;20191;-61
2022/04/08 02:41:24;;;;;;;2.23;0.90;;;;;;;18.75;53.11;99060.47;5025700;28;20212;-61
2022/04/08 02:43:49;;;;;;;3.43;1.30;;;;;;;18.78;52.96;99053.94;5024796;28;20184;-61
2022/04/08 02:46:14;;;;;;;4.00;1.37;;;;;;;18.79;52.98;99054.72;5033487;28;20580;-61
2022/04/08 02:48:40;;;;;;;4.30;1.27;;;;;;;18.77;53.05;99058.00;5033153;28;20228;-61
2022/04/08 02:51:05;;;;;;;2.33;1.00;;;;;;;18.77;53.05;99058.00;5032806;28;20200;-61
2022/04/08 02:53:31;;;;;;;3.80;1.10;;;;;;;18.77;52.91;99055.13;5031368;28;20185;-62
2022/04/08 02:55:57;;;;;;;5.07;1.40;;;;;;;18.78;52.89;99058.81;5032919;28;20230;-62
2022/04/08 02:58:22;;;;;;;1.90;0.90;;;;;;;18.78;52.78;99059.66;5033146;28;20906;-62
2022/04/08 03:00:48;;;;;;;4.37;1.20;;;;;;;18.76;52.99;99055.56;5033599;28;20616;-62
2022/04/08 03:03:14;;;;;;;1.87;0.73;;;;;;;18.77;52.82;99055.13;5033195;28;20250;-62
2022/04/08 03:05:39;;;;;;;3.50;0.90;;;;;;;18.76;52.90;99053.50;5032707;28;20778;-61
2022/04/08 03:08:05;;;;;;;2.20;1.00;;;;;;;18.78;52.72;99053.09;5033593;28;20169;-61
2022/04/08 03:10:31;;;;;;;3.97;1.13;;;;;;;18.76;52.76;99050.66;5033084;28;20238;-61
2022/04/08 03:12:56;;;;;;;4.27;1.30;;;;;;;18.75;52.88;99049.03;5033374;28;20180;-61
2022/04/08 03:15:22;;;;;;;2.70;1.00;;;;;;;18.79;53.05;99049.00;5033166;28;20594;-61
2022/04/08 03:17:49;;;;;;;2.73;1.20;;;;;;;18.76;52.72;99050.66;5033441;28;20180;-61
2022/04/08 03:20:15;;;;;;;2.83;1.00;;;;;;;18.78;52.97;99050.25;5032827;28;20180;-61
2022/04/08 03:22:40;;;;;;;2.00;0.80;;;;;;;18.78;52.94;99048.22;5033258;28;20431;-61
2022/04/08 03:25:06;;;;;;;5.27;1.40;;;;;;;18.75;53.07;99049.03;5032959;28;20176;-61
2022/04/08 03:27:31;;;;;;;2.10;1.00;;;;;;;18.78;52.77;99042.50;5015281;28;20674;-61
2022/04/08 03:29:57;;;;;;;6.20;1.30;;;;;;;18.76;52.74;99050.66;5032432;28;20196;-61
2022/04/08 03:32:22;;;;;;;4.03;0.97;;;;;;;18.79;52.78;99038.41;5032054;28;20188;-61
2022/04/08 03:34:57;;;;;;;3.50;1.13;;;;;;;18.78;52.87;99041.66;5032395;28;20184;-62
2022/04/08 03:37:23;;;;;;;4.77;1.17;;;;;;;18.75;52.79;99048.19;5033047;28;20203;-62
2022/04/08 03:39:48;;;;;;;3.37;1.10;;;;;;;18.76;52.90;99049.84;5032756;28;20434;-62
2022/04/08 03:42:14;;;;;;;3.70;1.10;;;;;;;18.74;52.90;99052.28;5032819;28;20419;-62
2022/04/08 03:44:39;;;;;;;4.60;0.97;;;;;;;18.77;53.26;99049.41;5032667;28;20218;-61
2022/04/08 03:47:05;;;;;;;2.70;1.10;;;;;;;18.75;53.02;99049.03;5032760;28;20192;-62
2022/04/08 03:49:35;;;;;;;4.03;1.40;;;;;;;18.75;52.98;99048.19;5031851;28;21004;-61
2022/04/08 03:52:03;;;;;;;4.10;1.00;;;;;;;18.74;53.02;99038.81;5032688;28;20203;-61
2022/04/08 03:54:29;;;;;;;3.47;1.00;;;;;;;18.75;52.80;99043.31;5032638;28;20420;-61
2022/04/08 03:56:55;;;;;;;4.90;1.57;;;;;;;18.78;52.85;99048.22;5032639;28;20833;-61
2022/04/08 03:59:22;;;;;;;3.20;1.27;;;;;;;18.72;53.37;99043.31;5032365;28;20171;-61
2022/04/08 04:01:47;;;;;;;2.97;1.17;;;;;;;18.74;53.02;99041.69;5032464;28;20426;-61
2022/04/08 04:04:13;;;;;;;3.20;0.80;;;;;;;18.75;53.03;99040.44;5032193;28;20431;-61
2022/04/08 04:06:38;;;;;;;4.43;1.07;;;;;;;18.74;52.99;99050.25;5032510;28;20177;-62
2022/04/08 04:09:04;;;;;;;3.40;1.10;;;;;;;18.73;53.19;99040.06;5032450;28;20644;-61
2022/04/08 04:11:29;;;;;;;2.20;0.80;;;;;;;18.71;52.74;99039.66;5023316;28;20185;-61
2022/04/08 04:13:55;;;;;;;3.43;1.23;;;;;;;18.72;52.97;99034.75;5024321;28;20604;-62
2022/04/08 04:16:20;;;;;;;3.50;1.20;;;;;;;18.76;52.77;99042.06;5030651;28;20531;-61
2022/04/08 04:18:46;;;;;;;4.93;1.43;;;;;;;18.72;52.85;99034.75;5031594;28;20639;-61
2022/04/08 04:21:12;;;;;;;2.77;0.93;;;;;;;18.74;52.84;99033.13;5031849;28;20176;-61
2022/04/08 04:23:38;;;;;;;3.00;1.07;;;;;;;18.74;52.71;99029.41;5032374;28;20563;-61
2022/04/08 04:26:03;;;;;;;2.70;0.90;;;;;;;18.75;52.65;99031.88;5031437;28;20421;-61
2022/04/08 04:28:32;;;;;;;2.03;0.90;;;;;;;18.73;52.75;99033.53;5031563;28;20188;-61
2022/04/08 04:31:01;;;;;;;2.23;1.10;;;;;;;18.74;52.99;99035.97;5031327;28;20196;-61
2022/04/08 04:33:26;;;;;;;2.50;1.10;;;;;;;18.74;52.85;99038.00;5031280;28;20427;-61
2022/04/08 04:35:52;;;;;;;4.00;1.27;;;;;;;18.73;52.66;99042.09;5031240;28;20465;-61
2022/04/08 04:38:17;;;;;;;3.00;1.10;;;;;;;18.73;52.79;99048.63;5021781;28;20268;-61
2022/04/08 04:40:43;;;;;;;2.13;0.87;;;;;;;18.73;52.89;99054.34;5030709;28;20177;-61
2022/04/08 04:43:08;;;;;;;2.30;0.83;;;;;;;18.74;52.65;99047.41;5030095;28;20196;-62
2022/04/08 04:45:37;;;;;;;2.33;0.90;;;;;;;18.73;52.82;99044.94;5029645;28;20203;-62
2022/04/08 04:48:03;;;;;;;2.40;1.10;;;;;;;18.74;52.68;99044.53;5018386;28;20239;-61
2022/04/08 04:50:29;;;;;;;1.77;0.90;;;;;;;18.72;52.95;99037.63;5030904;28;20455;-61
2022/04/08 04:52:54;;;;;;;2.50;1.20;;;;;;;18.72;52.65;99049.84;5030793;28;20500;-62
2022/04/08 04:55:20;;;;;;;3.27;1.50;;;;;;;18.77;52.53;99045.75;5030871;28;20184;-61
2022/04/08 04:57:45;;;;;;;3.20;1.67;;;;;;;18.74;52.72;99041.69;5030877;28;20192;-62
2022/04/08 05:00:11;;;;;;;2.57;1.00;;;;;;;18.75;52.74;99048.19;5029644;28;20299;-62
2022/04/08 05:02:37;;;;;;;3.60;1.00;;;;;;;18.77;52.67;99046.56;5029754;28;20216;-62
2022/04/08 05:05:03;;;;;;;5.37;1.33;;;;;;;18.72;52.71;99054.75;5030717;28;20179;-62
2022/04/08 05:07:28;;;;;;;4.90;1.20;;;;;;;18.75;52.88;99053.91;5030726;28;20176;-61
2022/04/08 05:09:54;;;;;;;3.40;1.30;;;;;;;18.71;52.88;99059.66;5030477;28;20499;-61
2022/04/08 05:12:19;;;;;;;1.70;0.70;;;;;;;18.75;52.84;99059.63;5030387;28;20180;-62
2022/04/08 05:14:45;;;;;;;2.17;1.03;;;;;;;18.73;52.75;99054.34;5030972;28;20184;-61
2022/04/08 05:17:10;;;;;;;2.23;0.87;;;;;;;18.73;52.73;99051.50;5029415;28;20180;-62
2022/04/08 05:19:36;;;;;;;3.70;0.83;;;;;;;18.72;52.66;99054.75;5030643;28;20172;-62
2022/04/08 05:22:01;;;;;;;3.50;1.10;;;;;;;18.73;52.80;99056.38;5030626;28;20543;-61
2022/04/08 05:24:27;;;;;;;2.93;1.00;;;;;;;18.71;52.98;99053.94;5030749;28;20179;-61
2022/04/08 05:26:52;;;;;;;2.20;0.87;;;;;;;18.71;52.82;99053.94;5030443;28;20176;-61
2022/04/08 05:29:18;;;;;;;2.57;1.00;;;;;;;18.70;52.73;99058.03;5030339;28;20259;-61
2022/04/08 05:31:43;;;;;;;1.93;0.90;;;;;;;18.70;52.93;99058.03;5029867;28;20189;-61
2022/04/08 05:34:08;;;;;;;3.00;1.03;;;;;;;18.71;52.53;99065.38;5030731;28;20176;-61
2022/04/08 05:36:34;;;;;;;3.10;1.10;;;;;;;18.71;52.72;99059.66;5030836;28;20693;-61
2022/04/08 05:38:59;;;;;;;2.17;1.00;;;;;;;18.72;52.64;99061.28;5030737;28;20234;-60
2022/04/08 05:41:25;;;;;;;2.13;1.03;;;;;;;18.30;47.14;99052.75;5026213;28;20192;-61
2022/04/08 05:43:50;;;;;;;1.73;0.60;;;;;;;17.99;51.10;99058.47;5026739;28;20226;-61
2022/04/08 05:46:15;;;;;;;4.03;1.00;;;;;;;17.97;47.00;99047.44;5026050;28;20230;-61
2022/04/08 05:48:41;;;;;;;6.70;1.37;;;;;;;18.57;45.31;99065.41;5027197;28;20244;-60
2022/04/08 05:51:07;;;;;;;10.73;1.80;;;;;;;19.00;47.24;99061.22;5027668;28;20211;-61
2022/04/08 05:53:32;;;;;;;8.83;1.50;;;;;;;19.07;47.60;99057.50;5010394;28;20188;-61
2022/04/08 05:55:58;;;;;;;7.90;1.20;;;;;;;18.95;47.23;99063.66;5027514;28;20195;-61
2022/04/08 05:58:24;;;;;;;3.07;1.33;;;;;;;18.94;48.08;99065.72;5028306;28;20267;-61
2022/04/08 06:00:50;;;;;;;5.60;1.30;;;;;;;18.91;48.03;99066.53;5027179;28;20299;-62
2022/04/08 06:03:15;;;;;;;5.17;1.60;;;;;;;19.01;48.36;99067.75;5029220;28;20184;-61
2022/04/08 06:05:40;;;;;;;4.70;1.43;;;;;;;19.01;48.51;99064.91;5029156;28;20183;-61
2022/04/08 06:08:06;;;;;;;5.10;1.10;;;;;;;19.07;49.08;99061.16;5029072;28;20165;-61
2022/04/08 06:10:32;;;;;;;5.10;1.30;;;;;;;19.12;49.36;99052.16;5027944;28;20230;-61
2022/04/08 06:12:57;;;;;;;4.30;1.10;;;;;;;19.22;49.30;99039.88;5028836;28;20177;-61
2022/04/08 06:15:23;;;;;;;5.83;1.00;;;;;;;19.25;49.95;99044.78;5028307;28;20191;-61
2022/04/08 06:17:48;;;;;;;4.80;1.13;;;;;;;19.26;49.46;99034.97;5028861;28;20262;-60
2022/04/08 06:20:17;;;;;;;4.27;1.20;;;;;;;19.23;49.54;99035.00;5028266;28;20219;-60
2022/04/08 06:22:43;;;;;;;3.20;1.43;;;;;;;19.14;49.63;99037.44;5028980;28;20828;-60
2022/04/08 06:25:13;;;;;;;6.50;1.63;;;;;;;19.13;49.48;99033.78;5027511;28;20520;-61
2022/04/08 06:27:38;;;;;;;5.40;2.33;;;;;;;19.07;50.30;99031.75;5028113;28;20707;-60
2022/04/08 06:30:07;;;;;;;4.67;1.70;;;;;;;19.14;49.70;99032.53;5027922;28;20470;-61
2022/04/08 06:32:33;;;;;;;10.93;2.13;;;;;;;19.13;50.23;99019.47;5009393;28;20248;-61
2022/04/08 06:34:58;;;;;;;6.13;2.00;;;;;;;19.13;50.03;99022.34;5027818;28;20887;-60
2022/04/08 06:37:28;;;;;;;5.33;1.47;;;;;;;19.19;50.31;99014.13;5027820;28;20535;-60
2022/04/08 06:39:53;;;;;;;7.17;1.40;;;;;;;19.21;50.32;99009.63;5026818;28;20200;-60
2022/04/08 06:42:19;;;;;;;5.63;1.70;;;;;;;19.11;50.67;99001.09;5027871;28;20419;-60
2022/04/08 06:44:44;;;;;;;8.27;1.80;;;;;;;19.08;50.81;98999.88;5028181;28;20262;-60
2022/04/08 06:47:09;;;;;;;9.27;1.60;;;;;;;19.06;51.04;98996.59;5029010;28;20197;-60
2022/04/08 06:49:35;;;;;;;6.30;1.60;;;;;;;19.05;50.63;98995.00;5028020;28;20228;-60
2022/04/08 06:52:01;;;;;;;7.50;1.73;;;;;;;18.98;50.82;98989.31;5027888;28;20198;-60
2022/04/08 06:54:27;;;;;;;7.77;1.90;;;;;;;19.00;50.50;98991.72;5027334;28;20256;-61
2022/04/08 06:56:52;;;;;;;9.00;1.70;;;;;;;19.03;51.71;98988.88;5028111;28;20795;-61
2022/04/08 06:59:18;;;;;;;9.73;1.73;;;;;;;19.04;53.19;98981.91;5026989;28;20242;-61
2022/04/08 07:01:43;;;;;;;13.40;2.30;;;;;;;19.00;53.51;98978.25;5028013;28;20176;-61
2022/04/08 07:04:09;;;;;;;11.30;1.77;;;;;;;19.02;53.54;98975.78;5029148;28;20177;-60
2022/04/08 07:06:34;;;;;;;20.47;3.30;;;;;;;19.02;53.67;98961.47;5032181;28;20242;-60
2022/04/08 07:09:00;;;;;;;7.37;2.47;;;;;;;18.99;53.87;98962.34;5032034;28;20172;-60
2022/04/08 07:11:25;;;;;;;12.00;2.73;;;;;;;19.02;53.98;98961.47;5033123;28;20203;-60
2022/04/08 07:13:51;;;;;;;7.93;2.03;;;;;;;19.04;54.07;98963.94;5033469;28;20191;-60
2022/04/08 07:16:16;;;;;;;9.80;1.80;;;;;;;19.05;53.84;98952.09;5033808;28;20180;-61
2022/04/08 07:18:42;;;;;;;9.63;1.50;;;;;;;19.06;54.25;98944.31;5034143;28;20595;-60
2022/04/08 07:21:07;;;;;;;8.33;1.90;;;;;;;19.06;54.17;98952.91;5034038;28;20173;-60
2022/04/08 07:23:32;;;;;;;5.83;1.43;;;;;;;19.05;54.08;98943.50;5033326;28;20189;-61
2022/04/08 07:25:58;;;;;;;12.80;2.40;;;;;;;19.05;54.20;98936.94;5032568;28;20210;-61
2022/04/08 07:28:23;;;;;;;9.60;2.17;;;;;;;19.07;54.08;98929.59;5034115;28;20180;-61
2022/04/08 07:30:50;;;;;;;7.37;1.50;;;;;;;19.08;54.13;98933.28;5033476;28;20207;-60
2022/04/08 07:33:16;;;;;;;6.07;1.90;;;;;;;19.07;53.98;98923.06;5034248;28;20696;-60
2022/04/08 07:35:41;;;;;;;5.40;2.10;;;;;;;19.06;53.85;98922.25;5033249;28;20427;-60
2022/04/08 07:38:07;;;;;;;7.00;1.53;;;;;;;19.07;54.02;98923.84;5032257;28;20180;-60
2022/04/08 07:40:32;;;;;;;11.13;2.13;;;;;;;19.06;54.02;98912.88;5033440;28;20185;-60
2022/04/08 07:42:58;;;;;;;11.10;1.93;;;;;;;19.05;53.89;98914.91;5033598;28;20192;-60
2022/04/08 07:45:27;;;;;;;10.40;2.37;;;;;;;19.03;54.17;98905.94;5033727;28;20250;-60
2022/04/08 07:47:55;;;;;;;9.77;1.50;;;;;;;19.00;54.14;98900.22;5033570;28;20180;-60
2022/04/08 07:50:20;;;;;;;11.77;2.27;;;;;;;19.00;54.12;98901.03;5032065;28;20454;-60
2022/04/08 07:52:45;;;;;;;7.43;1.90;;;;;;;18.95;54.21;98895.75;5032669;28;20432;-61
2022/04/08 07:55:11;;;;;;;7.70;2.13;;;;;;;18.96;54.39;98888.00;5032475;28;20172;-61
2022/04/08 07:57:47;;;;;;;8.80;2.13;;;;;;;18.94;54.25;98893.31;5032377;28;20181;-61
2022/04/08 08:00:14;;;;;;;10.37;2.07;;;;;;;18.94;54.12;98879.00;5032642;28;20441;-60
2022/04/08 08:02:40;;;;;;;10.47;2.43;;;;;;;18.94;54.22;98876.97;5031887;28;20490;-60
2022/04/08 08:05:06;;;;;;;7.80;2.73;;;;;;;18.94;54.22;98864.72;5033313;28;20855;-60
2022/04/08 08:07:32;;;;;;;9.67;1.83;;;;;;;18.93;54.07;98866.78;5033595;28;20182;-61
2022/04/08 08:09:57;;;;;;;7.27;2.13;;;;;;;18.91;54.35;98857.78;5015224;28;20467;-61
2022/04/08 08:12:23;;;;;;;5.70;1.80;;;;;;;18.88;54.42;98860.66;5031966;28;20173;-60
2022/04/08 08:14:48;;;;;;;9.23;1.70;;;;;;;18.89;54.29;98848.00;5033288;28;20187;-61
2022/04/08 08:17:14;;;;;;;11.03;1.87;;;;;;;18.86;54.28;98846.78;5032211;28;20623;-60
2022/04/08 08:19:39;;;;;;;10.30;2.37;;;;;;;18.87;54.25;98841.88;5032918;28;20613;-60
2022/04/08 08:22:05;;;;;;;8.13;1.90;;;;;;;18.88;54.33;98849.22;5032675;28;20161;-60
2022/04/08 08:24:30;;;;;;;9.80;2.20;;;;;;;18.85;54.35;98842.31;5032638;28;20219;-60
2022/04/08 08:26:56;;;;;;;6.87;2.50;;;;;;;18.84;54.43;98843.53;5014487;28;20834;-60
2022/04/08 08:29:21;;;;;;;10.70;2.60;;;;;;;18.83;54.45;98839.06;5032831;28;20246;-60
2022/04/08 08:31:47;;;;;;;14.63;1.93;;;;;;;18.84;54.43;98828.41;5032908;28;20180;-60
2022/04/08 08:34:12;;;;;;;5.77;2.17;;;;;;;18.88;54.29;98834.94;5031318;28;20184;-60
2022/04/08 08:36:38;;;;;;;5.87;1.80;;;;;;;18.84;54.45;98834.97;5033076;28;20175;-60
2022/04/08 08:39:03;;;;;;;9.83;2.10;;;;;;;18.81;54.44;98824.34;5030939;28;20172;-60
2022/04/08 08:41:36;;;;;;;6.20;2.03;;;;;;;18.87;54.44;98813.28;5031515;28;20152;-60
2022/04/08 08:44:01;;;;;;;7.00;1.90;;;;;;;18.85;54.04;98813.72;5032294;28;20263;-60
2022/04/08 08:46:27;;;;;;;9.87;2.53;;;;;;;18.85;54.17;98795.72;5032653;28;20980;-61
2022/04/08 08:48:59;;;;;;;5.77;1.90;;;;;;;18.82;54.34;98790.88;5032193;28;20228;-61
2022/04/08 08:51:24;;;;;;;5.87;2.27;;;;;;;18.85;54.18;98787.16;5013512;28;20208;-60
2022/04/08 08:53:50;;;;;;;6.50;1.47;;;;;;;18.82;54.12;98783.09;5031434;28;20419;-60
2022/04/08 08:56:15;;;;;;;6.97;2.00;;;;;;;18.82;54.40;98782.28;5032258;28;20172;-60
2022/04/08 08:58:41;;;;;;;6.60;2.37;;;;;;;18.81;54.36;98772.88;5032060;28;20195;-60
2022/04/08 09:01:09;;;;;;;7.23;2.13;;;;;;;18.82;54.44;98768.78;5031099;28;20160;-60
2022/04/08 09:03:34;;;;;;;10.50;2.53;;;;;;;18.89;54.29;98759.34;4995708;28;20670;-60
2022/04/08 09:06:07;;;;;;;5.90;2.17;;;;;;;18.89;54.02;98762.19;5032242;28;20419;-60
2022/04/08 09:08:33;;;;;;;6.53;2.30;;;;;;;18.90;54.25;98756.06;5032172;28;20227;-60
2022/04/08 09:10:59;;;;;;;7.37;1.80;;;;;;;18.90;53.90;98753.22;5032554;28;20451;-60
2022/04/08 09:13:24;;;;;;;7.17;1.90;;;;;;;18.90;54.12;98750.34;5032311;28;20415;-60
2022/04/08 09:15:59;;;;;;;8.73;2.70;;;;;;;18.88;53.98;98734.84;5031791;28;20180;-60
2022/04/08 09:18:30;;;;;;;6.27;2.23;;;;;;;18.88;54.28;98723.41;5031786;28;20176;-60
2022/04/08 09:20:55;;;;;;;7.50;2.30;;;;;;;18.88;53.88;98707.06;5030946;28;20446;-60
2022/04/08 09:23:21;;;;;;;7.13;1.97;;;;;;;18.94;53.72;98708.25;5032223;28;20843;-60
2022/04/08 09:25:48;;;;;;;6.50;1.90;;;;;;;18.93;53.77;98709.47;5031966;28;20179;-60
2022/04/08 09:28:15;;;;;;;5.77;1.97;;;;;;;18.93;53.90;98694.38;5031070;28;20176;-60
2022/04/08 09:30:46;;;;;;;8.07;2.87;;;;;;;18.89;53.79;98693.56;5030821;28;20455;-60
2022/04/08 09:33:13;;;;;;;6.13;1.90;;;;;;;18.92;53.73;98679.25;5031232;28;20423;-60
2022/04/08 09:35:40;;;;;;;8.00;2.57;;;;;;;18.96;53.64;98668.59;5031939;28;20444;-60
2022/04/08 09:38:05;;;;;;;8.17;2.20;;;;;;;18.93;53.88;98655.16;5031880;28;20791;-60
2022/04/08 09:40:42;;;;;;;10.93;2.23;;;;;;;18.92;53.92;98647.78;5031870;28;20408;-60
2022/04/08 09:43:07;;;;;;;7.17;2.23;;;;;;;18.93;53.51;98649.44;5014187;28;20691;-60
2022/04/08 09:45:33;;;;;;;5.60;2.07;;;;;;;18.92;53.74;98642.06;5031052;28;20435;-61
2022/04/08 09:47:59;;;;;;;6.80;2.20;;;;;;;18.92;53.73;98652.72;5029612;28;20223;-61
2022/04/08 09:50:25;;;;;;;8.37;2.03;;;;;;;18.93;53.57;98652.28;5031428;28;20192;-61
2022/04/08 09:52:51;;;;;;;6.80;2.20;;;;;;;18.86;54.06;98654.41;5031841;28;20427;-61
2022/04/08 09:55:16;;;;;;;4.53;1.60;;;;;;;18.87;53.87;98656.03;5013903;28;20181;-60
2022/04/08 09:57:42;;;;;;;5.40;2.07;;;;;;;18.86;54.01;98660.91;5014032;28;20216;-60
2022/04/08 10:00:08;;;;;;;8.30;2.23;;;;;;;18.82;54.15;98659.34;5031718;28;20175;-60
2022/04/08 10:02:36;;;;;;;7.60;2.37;;;;;;;18.84;54.18;98646.25;5032054;28;20176;-60
2022/04/08 10:05:01;;;;;;;6.03;2.37;;;;;;;18.81;53.87;98660.59;5013400;28;20770;-60
2022/04/08 10:07:27;;;;;;;9.57;2.80;;;;;;;18.79;54.35;98643.03;5031551;28;20419;-60
2022/04/08 10:10:19;;;;;;;6.20;1.60;;;;;;;18.80;54.55;98642.59;5012396;28;20192;-60
2022/04/08 10:13:15;;;;;;;9.80;2.10;;;;;;;18.81;53.95;98632.78;5016697;28;20226;-60
2022/04/08 10:15:52;;;;;;;8.63;2.40;;;;;;;18.76;54.09;98638.97;5013419;28;20517;-60
2022/04/08 10:18:18;;;;;;;5.80;2.00;;;;;;;18.76;54.26;98633.25;5013727;28;20785;-60
2022/04/08 10:20:44;;;;;;;6.40;2.23;;;;;;;18.80;54.11;98619.72;5008405;28;20422;-60
2022/04/08 10:23:18;;;;;;;6.30;2.13;;;;;;;18.81;53.90;98612.78;5011749;28;20536;-60
2022/04/08 10:25:51;;;;;;;6.07;2.77;;;;;;;18.76;54.08;98610.38;5011258;28;20887;-60
2022/04/08 10:28:51;;;;;;;5.77;2.10;;;;;;;18.74;54.24;98592.03;5024205;28;20458;-60
2022/04/08 10:31:20;;;;;;;5.13;1.70;;;;;;;18.73;54.15;98582.66;5030715;28;20455;-60
2022/04/08 10:34:05;;;;;;;7.80;2.70;;;;;;;18.75;53.98;98576.47;5031394;28;20443;-61
2022/04/08 10:36:35;;;;;;;7.73;1.73;;;;;;;18.74;54.02;98572.00;5013228;28;20481;-60
2022/04/08 10:39:14;;;;;;;9.60;2.10;;;;;;;18.71;54.42;98547.94;5030828;28;20423;-60
2022/04/08 10:42:00;;;;;;;7.30;2.20;;;;;;;18.72;54.24;98549.56;5034058;28;20424;-62
2022/04/08 10:44:33;;;;;;;5.30;1.87;;;;;;;18.70;54.26;98540.59;5034831;28;20472;-61
2022/04/08 10:47:03;;;;;;;8.60;2.20;;;;;;;18.69;54.29;98533.28;5034512;28;20946;-61
2022/04/08 10:49:28;;;;;;;7.00;2.80;;;;;;;18.71;54.20;98545.09;5034254;28;20455;-61
2022/04/08 10:51:54;;;;;;;8.20;2.60;;;;;;;18.72;53.93;98529.53;5015614;28;20430;-61
2022/04/08 10:54:20;;;;;;;5.27;2.00;;;;;;;18.71;53.97;98522.22;5034056;28;20230;-61
2022/04/08 10:56:57;;;;;;;9.13;2.90;;;;;;;18.72;53.90;98518.13;5034609;28;20180;-61
2022/04/08 10:59:26;;;;;;;6.67;2.07;;;;;;;18.73;54.15;98519.75;5034562;28;20180;-60
2022/04/08 11:01:56;;;;;;;7.23;1.80;;;;;;;18.75;53.82;98508.69;5035301;28;20414;-61
2022/04/08 11:04:22;;;;;;;6.67;1.93;;;;;;;18.75;53.88;98502.97;5034714;28;20422;-61
2022/04/08 11:06:48;;;;;;;5.80;2.00;;;;;;;18.72;53.95;98509.53;5034752;28;20921;-62
2022/04/08 11:09:16;;;;;;;6.67;2.33;;;;;;;18.71;54.14;98515.69;5029850;28;20184;-61
2022/04/08 11:11:43;;;;;;;5.50;1.93;;;;;;;18.70;54.05;98491.19;5033175;28;20578;-60
2022/04/08 11:14:09;;;;;;;6.40;2.20;;;;;;;18.69;54.38;98483.84;5033869;28;20426;-61
2022/04/08 11:16:38;;;;;;;4.93;1.60;;;;;;;18.68;54.28;98476.53;5033189;28;20419;-61
2022/04/08 11:19:05;;;;;;;5.70;2.23;;;;;;;18.66;54.27;98445.50;5033248;28;20427;-60
2022/04/08 11:21:30;;;;;;;6.40;2.03;;;;;;;18.67;54.35;98457.75;5034210;28;20494;-60
2022/04/08 11:24:03;;;;;;;4.90;1.60;;;;;;;18.66;54.29;98481.88;5033863;28;20427;-60
2022/04/08 11:26:29;;;;;;;4.70;1.77;;;;;;;18.65;54.09;98458.19;5034488;28;20164;-61
2022/04/08 11:29:15;;;;;;;5.20;2.00;;;;;;;18.67;54.16;98464.25;5033874;28;20445;-61